Hlavní strana
METAR-TAF:

METAR-TAF

Letiště :

Murmansk, Rusko

zeměpisná šířka: 68-58N, zeměpisná délka: 033-03E, výška: 51 m

Aktuální stav počasí

Zpráva byla vytvořena před 21 minutami, v 21:00 UTC
Západní vítr 8 kt
Teplota 7°C
Vlhkost vzduchu 76%
Tlak 999 hPa
Viditelnost 10 km a více
Oblačno až skoro zataženo ve výšce 1600 ft

METAR: ULMM 182100Z 28004MPS 9999 BKN016 07/03 Q0999 R31/090070 NOSIG RMK QFE742

Čas: 00:21 (21:21 UTC)


TAF: chybějící

Stav a předpovědi počasí z více než 4 000 letišť (zprávy METAR a TAF).

Červené a žluté tečky na mapě představují dostupné meteorologické stanice.

Když kurzor umístíte na tečku, zobrazí se název stanice.

Pak kliknutím zobrazíte stav a předpověď počasí.

Chcete-li změnit mapu, kliknutím na zelené tlačítko se znaménkem +mapu přiblížíte, kliknutím na zelené tlačítko se znaménkem – mapu oddálíte a kliknutím na zelené šipky přejdete na sousední mapy.


METAR-TAF: